createdAt,value
2022-08-05T00:00:15.896Z,19.01
2022-08-05T00:02:13.667Z,18.94
2022-08-05T00:04:13.603Z,18.81
2022-08-05T00:06:22.208Z,19
2022-08-05T00:08:20.094Z,18.96
2022-08-05T00:10:00.550Z,18.82
2022-08-05T00:12:00.618Z,18.87
2022-08-05T00:14:00.532Z,18.82
2022-08-05T00:16:00.638Z,18.82
2022-08-05T00:18:00.750Z,18.76
2022-08-05T00:20:02.285Z,18.75
2022-08-05T00:22:00.540Z,18.75
2022-08-05T00:24:46.688Z,18.72
2022-08-05T00:26:50.653Z,18.78
2022-08-05T00:28:46.691Z,18.8
2022-08-05T00:30:46.743Z,18.7
2022-08-05T00:32:46.707Z,18.76
2022-08-05T00:34:55.026Z,18.71
2022-08-05T00:37:09.355Z,18.69
2022-08-05T00:38:46.696Z,18.68
2022-08-05T00:40:26.607Z,18.7
2022-08-05T00:42:31.469Z,18.66
2022-08-05T00:44:30.289Z,18.52
2022-08-05T00:46:36.834Z,18.49
2022-08-05T00:48:27.604Z,18.49
2022-08-05T00:50:25.205Z,18.42
2022-08-05T00:52:28.148Z,18.44
2022-08-05T00:55:34.287Z,18.44
2022-08-05T00:57:38.470Z,18.38
2022-08-05T00:59:34.664Z,18.29
2022-08-05T01:01:42.391Z,18.3
2022-08-05T01:03:34.223Z,18.31
2022-08-05T01:05:33.788Z,18.19
2022-08-05T01:07:33.774Z,18.17
2022-08-05T01:10:54.796Z,18.13
2022-08-05T01:13:03.267Z,18.1
2022-08-05T01:14:54.754Z,18.15
2022-08-05T01:16:54.764Z,18.05
2022-08-05T01:18:56.510Z,17.99
2022-08-05T01:20:54.818Z,17.99
2022-08-05T01:22:57.333Z,18.09
2022-08-05T01:26:06.490Z,17.91
2022-08-05T01:28:06.446Z,17.88
2022-08-05T01:30:12.508Z,17.87
2022-08-05T01:32:06.456Z,17.83
2022-08-05T01:34:06.474Z,17.84
2022-08-05T01:36:06.427Z,17.8
2022-08-05T01:38:06.445Z,17.84
2022-08-05T01:40:38.977Z,17.73
2022-08-05T01:42:38.657Z,17.71
2022-08-05T01:44:38.810Z,17.65
2022-08-05T01:46:41.718Z,17.62
2022-08-05T01:48:38.682Z,17.64
2022-08-05T01:50:38.854Z,17.67
2022-08-05T01:52:38.695Z,17.67
2022-08-05T01:54:45.716Z,17.6
2022-08-05T01:56:00.312Z,17.56
2022-08-05T01:58:08.537Z,17.54
2022-08-05T02:00:00.329Z,17.54
2022-08-05T02:02:00.433Z,17.53
2022-08-05T02:04:00.333Z,17.54
2022-08-05T02:06:00.935Z,17.41
2022-08-05T02:08:01.487Z,17.35
2022-08-05T02:11:15.246Z,17.25
2022-08-05T02:13:16.437Z,17.27
2022-08-05T02:15:15.599Z,17.3
2022-08-05T02:17:16.889Z,17.24
2022-08-05T02:19:15.221Z,17.2
2022-08-05T02:21:15.503Z,17.25
2022-08-05T02:23:15.252Z,17.26
2022-08-05T02:26:12.424Z,17.24
2022-08-05T02:28:12.388Z,17.1
2022-08-05T02:30:12.344Z,17.09
2022-08-05T02:32:12.309Z,17.14
2022-08-05T02:34:12.342Z,17.09
2022-08-05T02:36:13.417Z,16.98
2022-08-05T02:38:12.344Z,16.93
2022-08-05T02:40:12.302Z,16.94
2022-08-05T02:41:58.383Z,16.91
2022-08-05T02:44:03.055Z,16.86
2022-08-05T02:45:51.764Z,16.83
2022-08-05T02:47:58.820Z,16.84
2022-08-05T02:49:45.365Z,16.78
2022-08-05T02:52:01.253Z,16.78
2022-08-05T02:53:45.383Z,16.82
2022-08-05T02:58:09.113Z,16.66
2022-08-05T02:59:27.043Z,16.62
2022-08-05T03:01:24.851Z,16.57
2022-08-05T03:03:24.495Z,16.71
2022-08-05T03:06:53.338Z,16.58
2022-08-05T03:07:40.771Z,16.46
2022-08-05T03:09:27.286Z,16.49
2022-08-05T03:12:32.602Z,16.49
2022-08-05T03:14:32.645Z,16.52
2022-08-05T03:16:32.591Z,16.42
2022-08-05T03:18:32.586Z,16.45
2022-08-05T03:20:32.648Z,16.47
2022-08-05T03:22:32.819Z,16.54
2022-08-05T03:24:32.626Z,16.52
2022-08-05T03:27:20.215Z,16.42
2022-08-05T03:29:20.246Z,16.43
2022-08-05T03:31:55.494Z,16.41
2022-08-05T03:33:20.193Z,16.43
2022-08-05T03:35:20.230Z,16.46
2022-08-05T03:37:20.197Z,16.5
2022-08-05T03:39:26.928Z,16.46
2022-08-05T03:41:58.395Z,17.13
2022-08-05T03:44:08.578Z,18.3
2022-08-05T03:45:59.046Z,19.43
2022-08-05T03:47:58.802Z,20.32
2022-08-05T03:49:58.546Z,21.02
2022-08-05T03:52:35.622Z,21.69
2022-08-05T03:55:34.847Z,22.08
2022-08-05T03:56:03.992Z,22.02
2022-08-05T03:57:53.460Z,22.04
2022-08-05T03:59:54.641Z,22.46
2022-08-05T04:01:53.460Z,23.2
2022-08-05T04:03:57.005Z,24.18
2022-08-05T04:05:53.373Z,24.92
2022-08-05T04:07:58.430Z,25.31
2022-08-05T04:09:54.018Z,26.03
2022-08-05T04:13:14.705Z,27.38
2022-08-05T04:15:15.648Z,28
2022-08-05T04:17:14.707Z,28.35
2022-08-05T04:19:14.690Z,28.84
2022-08-05T04:21:19.952Z,28.92
2022-08-05T04:23:15.848Z,28.68
2022-08-05T04:25:14.678Z,28.63
2022-08-05T04:27:57.536Z,28.02
2022-08-05T04:29:54.875Z,27.53
2022-08-05T04:31:56.709Z,27.45
2022-08-05T04:34:19.514Z,27.19
2022-08-05T04:36:09.579Z,27.2
2022-08-05T04:38:01.848Z,27.92
2022-08-05T04:39:55.674Z,28.35
2022-08-05T04:42:48.102Z,29.43
2022-08-05T04:44:48.076Z,30.28
2022-08-05T04:46:48.607Z,30.61
2022-08-05T04:48:48.073Z,30.71
2022-08-05T04:51:02.100Z,31.48
2022-08-05T04:52:48.065Z,32.34
2022-08-05T04:54:49.302Z,33.24
2022-08-05T04:56:48.111Z,33.67
2022-08-05T04:58:09.257Z,33.99
2022-08-05T05:00:09.274Z,34.21
2022-08-05T05:02:35.866Z,34.37
2022-08-05T05:04:09.453Z,34.11
2022-08-05T05:06:36.316Z,33.6
2022-08-05T05:08:14.257Z,32.56
2022-08-05T05:10:09.334Z,31.19
2022-08-05T05:13:32.196Z,29.8
2022-08-05T05:15:56.271Z,29.53
2022-08-05T05:17:56.132Z,29.33
2022-08-05T05:19:36.225Z,28.32
2022-08-05T05:21:30.083Z,27.55
2022-08-05T05:23:38.894Z,27.45
2022-08-05T05:25:32.886Z,27.62
2022-08-05T05:29:14.821Z,25.4
2022-08-05T05:31:14.770Z,24
2022-08-05T05:33:16.707Z,23.59
2022-08-05T05:35:18.822Z,23.87
2022-08-05T05:37:14.458Z,23.8
2022-08-05T05:39:14.510Z,23.97
2022-08-05T05:41:16.293Z,24.21
2022-08-05T05:44:36.194Z,24.68
2022-08-05T05:46:24.198Z,25.22
2022-08-05T05:48:27.261Z,25.79
2022-08-05T05:50:24.280Z,25.68
2022-08-05T05:52:26.559Z,25.57
2022-08-05T05:54:49.665Z,25.35
2022-08-05T05:56:25.929Z,25.42
2022-08-05T05:59:03.016Z,24.99
2022-08-05T06:01:02.684Z,24.28
2022-08-05T06:03:01.837Z,24.15
2022-08-05T06:05:03.529Z,23.78
2022-08-05T06:07:01.853Z,24.39
2022-08-05T06:09:01.964Z,24.82
2022-08-05T06:11:02.205Z,24.97
2022-08-05T06:14:00.220Z,24.94
2022-08-05T06:16:27.789Z,24.97
2022-08-05T06:17:59.930Z,24.88
2022-08-05T06:19:59.993Z,24.8
2022-08-05T06:21:59.923Z,24.72
2022-08-05T06:23:59.935Z,25.02
2022-08-05T06:26:13.976Z,24.72
2022-08-05T06:29:24.889Z,24.82
2022-08-05T06:31:11.001Z,24.76
2022-08-05T06:33:09.841Z,25.2
2022-08-05T06:35:15.330Z,24.85
2022-08-05T06:37:07.241Z,25.56
2022-08-05T06:39:07.381Z,25.69
2022-08-05T06:41:07.734Z,25.71
2022-08-05T06:44:19.493Z,25.78
2022-08-05T06:46:19.515Z,25.06
2022-08-05T06:48:36.349Z,25.28
2022-08-05T06:50:19.560Z,25.08
2022-08-05T06:52:36.462Z,25.24
2022-08-05T06:54:19.471Z,25.47
2022-08-05T06:56:25.710Z,25.79
2022-08-05T07:00:03.690Z,26.57
2022-08-05T07:02:03.680Z,26.95
2022-08-05T07:04:03.716Z,27
2022-08-05T07:06:05.505Z,26.55
2022-08-05T07:08:03.725Z,26.58
2022-08-05T07:10:03.753Z,26.04
2022-08-05T07:12:03.707Z,26.26
2022-08-05T07:14:59.203Z,26.56
2022-08-05T07:17:58.153Z,27.07
2022-08-05T07:18:59.258Z,27.33
2022-08-05T07:21:04.586Z,27.69
2022-08-05T07:22:59.178Z,27.71
2022-08-05T07:24:59.245Z,27.98
2022-08-05T07:26:59.195Z,27.78
2022-08-05T07:30:22.513Z,28.08
2022-08-05T07:32:10.227Z,28.05
2022-08-05T07:34:10.241Z,28.71
2022-08-05T07:36:19.470Z,28.37
2022-08-05T07:38:12.241Z,28.43
2022-08-05T07:40:26.431Z,28.28
2022-08-05T07:42:13.672Z,28.6
2022-08-05T07:45:31.250Z,28.62
2022-08-05T07:47:24.016Z,28.78
2022-08-05T07:49:23.857Z,29.06
2022-08-05T07:51:37.643Z,29.44
2022-08-05T07:53:23.858Z,29.73
2022-08-05T07:55:44.143Z,29.83
2022-08-05T07:57:42.185Z,29.16
2022-08-05T08:00:46.037Z,29.2
2022-08-05T08:03:14.422Z,29.74
2022-08-05T08:04:46.033Z,30.18
2022-08-05T08:06:45.951Z,30.54
2022-08-05T08:08:45.966Z,30.38
2022-08-05T08:10:48.864Z,30.62
2022-08-05T08:12:48.986Z,30.71
2022-08-05T08:15:17.610Z,30.82
2022-08-05T08:17:17.698Z,30.5
2022-08-05T08:19:38.062Z,30.19
2022-08-05T08:21:17.898Z,30.48
2022-08-05T08:24:00.492Z,30.81
2022-08-05T08:25:17.920Z,30.9
2022-08-05T08:27:17.570Z,31.1
2022-08-05T08:30:20.518Z,31.32
2022-08-05T08:32:14.065Z,30.59
2022-08-05T08:34:14.108Z,30.57
2022-08-05T08:36:47.542Z,30.75
2022-08-05T08:38:16.516Z,31.17
2022-08-05T08:40:14.197Z,31.26
2022-08-05T08:42:15.283Z,31.07
2022-08-05T08:45:21.637Z,31.05
2022-08-05T08:46:09.928Z,31.2
2022-08-05T08:48:13.040Z,31.16
2022-08-05T08:50:14.779Z,31.64
2022-08-05T08:52:13.553Z,31.48
2022-08-05T08:54:07.192Z,31.8
2022-08-05T08:56:07.235Z,32.03
2022-08-05T08:58:07.159Z,32.3
2022-08-05T09:01:10.936Z,31.69
2022-08-05T09:03:09.845Z,31.83
2022-08-05T09:05:17.081Z,31.92
2022-08-05T09:07:10.760Z,31.69
2022-08-05T09:09:09.599Z,31.53
2022-08-05T09:11:12.272Z,31.56
2022-08-05T09:13:09.648Z,31.59
2022-08-05T09:16:14.599Z,32.49
2022-08-05T09:18:13.587Z,32.37
2022-08-05T09:20:13.213Z,32.75
2022-08-05T09:22:18.166Z,33.17
2022-08-05T09:24:13.200Z,33.48
2022-08-05T09:26:15.994Z,33.14
2022-08-05T09:28:13.209Z,32.98
2022-08-05T09:32:40.484Z,32.69
2022-08-05T09:33:44.192Z,32.57
2022-08-05T09:35:44.218Z,32.83
2022-08-05T09:38:13.190Z,33.36
2022-08-05T09:39:45.960Z,33.73
2022-08-05T09:41:44.178Z,33.77
2022-08-05T09:43:44.178Z,33.32
2022-08-05T09:47:05.629Z,33.44
2022-08-05T09:49:06.696Z,33.92
2022-08-05T09:51:15.058Z,33.86
2022-08-05T09:53:05.902Z,33.75
2022-08-05T09:55:06.219Z,33.29
2022-08-05T09:57:05.637Z,33.05
2022-08-05T09:59:05.610Z,33.29
2022-08-05T10:02:01.343Z,32.62
2022-08-05T10:04:01.316Z,33.24
2022-08-05T10:06:04.754Z,33.98
2022-08-05T10:08:11.440Z,34.16
2022-08-05T10:10:04.110Z,33.68
2022-08-05T10:12:04.814Z,33.58
2022-08-05T10:14:01.422Z,34.22
2022-08-05T10:16:52.683Z,33.97
2022-08-05T10:18:41.716Z,34.33
2022-08-05T10:20:41.635Z,34.18
2022-08-05T10:22:43.017Z,34.57
2022-08-05T10:24:41.761Z,32.25
2022-08-05T10:26:49.221Z,32.79
2022-08-05T10:28:41.672Z,33.51
2022-08-05T10:32:50.047Z,34.51
2022-08-05T10:33:54.823Z,34.71
2022-08-05T10:35:59.114Z,34.2
2022-08-05T10:37:54.591Z,34.13
2022-08-05T10:39:59.630Z,33.71
2022-08-05T10:41:57.903Z,33.52
2022-08-05T10:43:54.557Z,33.59
2022-08-05T10:47:35.339Z,32.4
2022-08-05T10:49:48.940Z,32.53
2022-08-05T10:51:35.319Z,32.75
2022-08-05T10:53:35.277Z,33.2
2022-08-05T10:55:38.678Z,33.37
2022-08-05T10:57:35.325Z,33.62
2022-08-05T11:00:01.565Z,33.85
2022-08-05T11:02:50.397Z,33.09
2022-08-05T11:04:47.620Z,33.76
2022-08-05T11:06:47.786Z,34.35
2022-08-05T11:08:47.663Z,34.83
2022-08-05T11:10:50.137Z,35.02
2022-08-05T11:12:50.647Z,35.17
2022-08-05T11:15:01.059Z,34.77
2022-08-05T11:18:06.001Z,34.73
2022-08-05T11:20:11.679Z,34.81
2022-08-05T11:22:06.000Z,34.92
2022-08-05T11:24:14.257Z,34.32
2022-08-05T11:26:08.624Z,33.98
2022-08-05T11:28:05.979Z,34.04
2022-08-05T11:30:05.974Z,34.18
2022-08-05T11:33:21.022Z,33.9
2022-08-05T11:35:18.481Z,33.81
2022-08-05T11:38:26.869Z,33.29
2022-08-05T11:39:18.506Z,33.02
2022-08-05T11:41:35.263Z,32.96
2022-08-05T11:43:18.475Z,32.41
2022-08-05T11:45:23.494Z,31.33
2022-08-05T11:47:49.149Z,32.54
2022-08-05T11:49:51.088Z,32
2022-08-05T11:51:49.296Z,33
2022-08-05T11:53:46.731Z,32.19
2022-08-05T11:55:46.815Z,33.01
2022-08-05T11:58:08.916Z,33.58
2022-08-05T11:59:49.628Z,33.81
2022-08-05T12:03:11.477Z,33.5
2022-08-05T12:05:17.891Z,32.95
2022-08-05T12:07:11.538Z,33.18
2022-08-05T12:09:11.541Z,33.58
2022-08-05T12:11:11.448Z,34.14
2022-08-05T12:13:15.751Z,34.46
2022-08-05T12:15:15.096Z,34.65
2022-08-05T12:18:48.789Z,34.4
2022-08-05T12:20:46.493Z,33.83
2022-08-05T12:22:46.450Z,33.69
2022-08-05T12:24:49.504Z,33.17
2022-08-05T12:26:46.490Z,32.8
2022-08-05T12:28:46.475Z,32.88
2022-08-05T12:30:46.540Z,32.78
2022-08-05T12:33:36.844Z,32.82
2022-08-05T12:35:37.098Z,33.45
2022-08-05T12:37:29.907Z,34
2022-08-05T12:39:34.420Z,34.32
2022-08-05T12:41:34.261Z,34.58
2022-08-05T12:43:32.104Z,34.69
2022-08-05T12:45:36.919Z,34.69
2022-08-05T12:48:27.939Z,33.78
2022-08-05T12:50:17.565Z,33.4
2022-08-05T12:52:22.084Z,32.96
2022-08-05T12:54:23.183Z,32.72
2022-08-05T12:56:24.600Z,33.28
2022-08-05T12:58:39.471Z,33.18
2022-08-05T13:01:59.447Z,32.41
2022-08-05T13:02:17.927Z,31.83
2022-08-05T13:03:33.053Z,32.19
2022-08-05T13:05:33.957Z,32.35
2022-08-05T13:07:56.409Z,31.23
2022-08-05T13:09:32.384Z,31.86
2022-08-05T13:12:02.479Z,31.82
2022-08-05T13:14:04.134Z,31.1
2022-08-05T13:15:36.175Z,32.41
2022-08-05T13:18:40.008Z,32.98
2022-08-05T13:20:40.260Z,33.05
2022-08-05T13:22:40.015Z,32.39
2022-08-05T13:24:51.461Z,31.6
2022-08-05T13:26:40.001Z,31.8
2022-08-05T13:28:40.952Z,31.97
2022-08-05T13:30:40.057Z,31.64
2022-08-05T13:34:25.800Z,31.66
2022-08-05T13:36:20.633Z,31.51
2022-08-05T13:38:30.422Z,31.46
2022-08-05T13:40:27.556Z,31.54
2022-08-05T13:42:20.705Z,31.67
2022-08-05T13:44:20.828Z,31.75
2022-08-05T13:46:37.861Z,31.99
2022-08-05T13:49:45.264Z,32.15
2022-08-05T13:51:46.020Z,32.16
2022-08-05T13:53:47.637Z,32.12
2022-08-05T13:55:48.627Z,32.26
2022-08-05T13:57:48.771Z,32.51
2022-08-05T13:59:55.614Z,32.37
2022-08-05T14:01:46.801Z,32.45
2022-08-05T14:04:14.185Z,32.71
2022-08-05T14:06:25.576Z,32.65
2022-08-05T14:08:20.597Z,32.44
2022-08-05T14:10:14.187Z,32.65
2022-08-05T14:12:17.923Z,32.99
2022-08-05T14:14:14.410Z,33.33
2022-08-05T14:16:16.682Z,33.53
2022-08-05T14:20:02.404Z,33.45
2022-08-05T14:22:07.839Z,32.75
2022-08-05T14:23:58.188Z,32.93
2022-08-05T14:25:59.541Z,32.91
2022-08-05T14:27:58.740Z,33.11
2022-08-05T14:29:58.113Z,33.27
2022-08-05T14:32:03.997Z,33.05
2022-08-05T14:34:23.589Z,33.05
2022-08-05T14:36:21.546Z,32.97
2022-08-05T14:38:28.048Z,32.92
2022-08-05T14:40:20.737Z,33.01
2022-08-05T14:42:21.903Z,33.07
2022-08-05T14:44:21.887Z,32.72
2022-08-05T14:46:20.669Z,32.75
2022-08-05T14:48:25.665Z,32.94
2022-08-05T14:49:56.189Z,32.91
2022-08-05T14:51:34.743Z,33.08
2022-08-05T14:53:34.572Z,33.19
2022-08-05T14:55:38.945Z,33.19
2022-08-05T14:57:53.853Z,32.48
2022-08-05T14:59:35.561Z,32.25
2022-08-05T15:01:47.392Z,32.19
2022-08-05T15:03:39.188Z,32.07
2022-08-05T15:04:51.813Z,32.14
2022-08-05T15:06:51.838Z,31.79
2022-08-05T15:08:58.795Z,31.73
2022-08-05T15:10:51.835Z,31.55
2022-08-05T15:13:00.753Z,31.55
2022-08-05T15:14:51.937Z,31.51
2022-08-05T15:16:51.792Z,31.58
2022-08-05T15:18:51.804Z,31.54
2022-08-05T15:20:41.197Z,31.4
2022-08-05T15:22:41.195Z,31.15
2022-08-05T15:24:41.190Z,31.22
2022-08-05T15:26:41.122Z,31.17
2022-08-05T15:28:42.856Z,31.01
2022-08-05T15:30:41.194Z,30.93
2022-08-05T15:32:41.159Z,30.94
2022-08-05T15:35:45.064Z,30.89
2022-08-05T15:38:09.379Z,30.81
2022-08-05T15:40:42.440Z,30.75
2022-08-05T15:41:55.310Z,30.63
2022-08-05T15:43:45.582Z,30.53
2022-08-05T15:45:39.180Z,30.48
2022-08-05T15:47:39.062Z,30.44
2022-08-05T15:50:48.627Z,30.59
2022-08-05T15:52:54.037Z,30.51
2022-08-05T15:54:48.620Z,30.47
2022-08-05T15:56:48.689Z,30.42
2022-08-05T15:58:48.622Z,30.24
2022-08-05T16:00:50.395Z,30.4
2022-08-05T16:02:48.651Z,30.38
2022-08-05T16:06:19.542Z,30.21
2022-08-05T16:08:16.438Z,30.28
2022-08-05T16:10:16.354Z,30.25
2022-08-05T16:12:16.585Z,30.16
2022-08-05T16:14:16.996Z,30.23
2022-08-05T16:16:21.374Z,30.21
2022-08-05T16:18:16.472Z,30.01
2022-08-05T16:21:58.335Z,29.93
2022-08-05T16:23:23.284Z,29.94
2022-08-05T16:25:23.217Z,29.98
2022-08-05T16:27:32.001Z,29.91
2022-08-05T16:29:23.547Z,29.92
2022-08-05T16:31:23.267Z,29.73
2022-08-05T16:33:23.314Z,29.62
2022-08-05T16:36:11.234Z,29.44
2022-08-05T16:38:16.527Z,29.55
2022-08-05T16:40:13.648Z,29.58
2022-08-05T16:42:13.188Z,29.46
2022-08-05T16:44:11.444Z,29.38
2022-08-05T16:46:12.993Z,29.29
2022-08-05T16:48:11.229Z,28.92
2022-08-05T16:51:42.473Z,28.67
2022-08-05T16:54:03.761Z,28.42
2022-08-05T16:55:46.622Z,28.33
2022-08-05T16:57:49.490Z,28.2
2022-08-05T16:59:33.179Z,28.06
2022-08-05T17:01:53.445Z,27.92
2022-08-05T17:03:33.069Z,27.89
2022-08-05T17:06:38.124Z,27.75
2022-08-05T17:08:52.554Z,27.61
2022-08-05T17:10:38.078Z,27.49
2022-08-05T17:12:50.266Z,27.37
2022-08-05T17:14:38.460Z,27.2
2022-08-05T17:16:38.076Z,27.15
2022-08-05T17:18:38.185Z,27.06
2022-08-05T17:21:54.382Z,26.89
2022-08-05T17:24:04.010Z,26.78
2022-08-05T17:25:54.342Z,26.68
2022-08-05T17:27:54.514Z,26.63
2022-08-05T17:29:59.693Z,26.44
2022-08-05T17:31:57.453Z,26.37
2022-08-05T17:33:54.382Z,26.22
2022-08-05T17:37:27.374Z,26.09
2022-08-05T17:39:24.035Z,26.07
2022-08-05T17:42:16.383Z,26.03
2022-08-05T17:43:26.368Z,25.98
2022-08-05T17:45:22.530Z,25.8
2022-08-05T17:47:21.810Z,25.76
2022-08-05T17:49:21.614Z,25.67
2022-08-05T17:52:26.984Z,25.53
2022-08-05T17:54:26.130Z,25.43
2022-08-05T17:56:28.336Z,25.35
2022-08-05T17:58:32.389Z,25.28
2022-08-05T18:00:28.533Z,25.16
2022-08-05T18:02:26.335Z,25.07
2022-08-05T18:04:27.125Z,25.02
2022-08-05T18:07:25.913Z,24.91
2022-08-05T18:09:25.822Z,24.83
2022-08-05T18:11:29.822Z,24.78
2022-08-05T18:13:25.860Z,24.74
2022-08-05T18:15:25.781Z,24.65
2022-08-05T18:17:58.363Z,24.6
2022-08-05T18:19:26.153Z,24.54
2022-08-05T18:22:08.133Z,24.33
2022-08-05T18:23:53.604Z,24.39
2022-08-05T18:25:57.536Z,24.3
2022-08-05T18:27:52.844Z,24.19
2022-08-05T18:29:54.664Z,24.12
2022-08-05T18:31:52.094Z,24.08
2022-08-05T18:33:52.087Z,24.03
2022-08-05T18:36:01.481Z,23.63
2022-08-05T18:37:33.770Z,23.63
2022-08-05T18:39:42.632Z,23.75
2022-08-05T18:41:58.673Z,23.86
2022-08-05T18:43:38.181Z,23.84
2022-08-05T18:45:41.110Z,23.83
2022-08-05T18:47:33.907Z,23.78
2022-08-05T18:49:44.752Z,23.76
2022-08-05T18:53:00.977Z,23.69
2022-08-05T18:55:00.992Z,23.64
2022-08-05T18:57:01.453Z,23.58
2022-08-05T18:59:01.403Z,23.56
2022-08-05T19:01:01.313Z,23.46
2022-08-05T19:03:03.475Z,23.44
2022-08-05T19:05:25.103Z,23.31
2022-08-05T19:07:29.761Z,23.36
2022-08-05T19:09:26.518Z,23.43
2022-08-05T19:11:27.098Z,23.44
2022-08-05T19:13:26.517Z,23.38
2022-08-05T19:15:58.447Z,23.37
2022-08-05T19:17:28.572Z,23.35
2022-08-05T19:19:26.515Z,23.37
2022-08-05T19:21:27.499Z,23.36
2022-08-05T19:24:06.373Z,23.28
2022-08-05T19:25:39.017Z,23.26
2022-08-05T19:27:32.589Z,23.23
2022-08-05T19:29:35.655Z,23.18
2022-08-05T19:31:33.707Z,23.16
2022-08-05T19:33:34.130Z,23.13
2022-08-05T19:35:56.231Z,23.13
2022-08-05T19:38:09.459Z,23.07
2022-08-05T19:40:10.306Z,23
2022-08-05T19:42:09.250Z,22.99
2022-08-05T19:44:12.749Z,22.97
2022-08-05T19:46:16.586Z,22.97
2022-08-05T19:48:14.475Z,22.87
2022-08-05T19:50:10.702Z,22.79
2022-08-05T19:53:09.790Z,22.76
2022-08-05T19:55:06.708Z,22.71
2022-08-05T19:57:02.032Z,22.77
2022-08-05T19:59:21.614Z,22.59
2022-08-05T20:01:01.929Z,22.59
2022-08-05T20:03:01.600Z,22.51
2022-08-05T20:05:02.471Z,22.57
2022-08-05T20:07:01.895Z,22.65
2022-08-05T20:09:06.330Z,22.69
2022-08-05T20:11:04.193Z,22.72
2022-08-05T20:13:03.954Z,22.68
2022-08-05T20:15:04.014Z,22.61
2022-08-05T20:17:03.991Z,22.59
2022-08-05T20:19:03.954Z,22.54
2022-08-05T20:21:04.588Z,22.5
2022-08-05T20:23:38.945Z,22.57
2022-08-05T20:25:39.822Z,22.48
2022-08-05T20:27:35.165Z,22.44
2022-08-05T20:29:34.243Z,22.45
2022-08-05T20:31:37.681Z,22.38
2022-08-05T20:33:34.229Z,22.33
2022-08-05T20:35:34.262Z,22.3
2022-08-05T20:39:00.131Z,22.27
2022-08-05T20:41:00.043Z,22.28
2022-08-05T20:43:00.340Z,22.24
2022-08-05T20:45:00.039Z,22.18
2022-08-05T20:47:00.125Z,22.09
2022-08-05T20:49:00.032Z,22.04
2022-08-05T20:51:00.070Z,22.02
2022-08-05T20:54:14.477Z,22.05
2022-08-05T20:56:14.394Z,22.06
2022-08-05T20:58:15.252Z,22.02
2022-08-05T21:00:21.531Z,22.12
2022-08-05T21:02:18.029Z,22.01
2022-08-05T21:04:14.449Z,21.93
2022-08-05T21:06:23.114Z,22.02
2022-08-05T21:08:52.259Z,22.02
2022-08-05T21:10:52.254Z,21.9
2022-08-05T21:12:58.407Z,21.87
2022-08-05T21:14:52.249Z,21.83
2022-08-05T21:16:52.302Z,21.72
2022-08-05T21:18:52.246Z,21.72
2022-08-05T21:20:52.902Z,21.69
2022-08-05T21:22:52.318Z,21.7
2022-08-05T21:24:27.111Z,21.77
2022-08-05T21:26:27.201Z,21.78
2022-08-05T21:28:30.599Z,21.8
2022-08-05T21:30:27.112Z,21.74
2022-08-05T21:32:27.613Z,21.72
2022-08-05T21:34:28.167Z,21.68
2022-08-05T21:36:27.898Z,21.72
2022-08-05T21:39:43.547Z,21.63
2022-08-05T21:41:52.517Z,21.63
2022-08-05T21:43:43.458Z,21.58
2022-08-05T21:45:51.681Z,21.54
2022-08-05T21:47:55.898Z,21.55
2022-08-05T21:49:47.970Z,21.57
2022-08-05T21:52:16.892Z,21.52
2022-08-05T21:54:27.766Z,21.43
2022-08-05T21:56:22.761Z,21.35
2022-08-05T21:58:25.017Z,21.44
2022-08-05T22:00:22.824Z,21.43
2022-08-05T22:02:22.837Z,21.34
2022-08-05T22:04:25.302Z,21.35
2022-08-05T22:06:34.994Z,21.35
2022-08-05T22:08:24.128Z,21.33
2022-08-05T22:09:45.644Z,21.31
2022-08-05T22:11:43.303Z,21.2
2022-08-05T22:14:07.000Z,21.25
2022-08-05T22:15:57.507Z,21.25
2022-08-05T22:17:48.646Z,21.13
2022-08-05T22:19:57.558Z,21.13
2022-08-05T22:21:43.511Z,21.14
2022-08-05T22:26:10.948Z,21.15
2022-08-05T22:28:05.164Z,21.04
2022-08-05T22:29:35.283Z,21.1
2022-08-05T22:31:44.262Z,21.09
2022-08-05T22:33:56.008Z,21.04
2022-08-05T22:35:38.555Z,20.99
2022-08-05T22:37:58.437Z,21.03
2022-08-05T22:40:20.664Z,21.05
2022-08-05T22:42:26.069Z,21
2022-08-05T22:44:20.372Z,20.94
2022-08-05T22:46:23.112Z,21.01
2022-08-05T22:48:22.078Z,20.97
2022-08-05T22:50:23.681Z,20.88
2022-08-05T22:52:22.731Z,20.82
2022-08-05T22:55:18.460Z,20.68
2022-08-05T22:57:08.608Z,20.82
2022-08-05T22:59:45.582Z,20.8
2022-08-05T23:01:07.984Z,20.77
2022-08-05T23:03:08.120Z,20.73
2022-08-05T23:05:07.975Z,20.72
2022-08-05T23:07:07.978Z,20.67
2022-08-05T23:10:50.893Z,20.71
2022-08-05T23:12:48.079Z,20.7
2022-08-05T23:14:48.170Z,20.58
2022-08-05T23:16:48.064Z,20.61
2022-08-05T23:18:48.135Z,20.6
2022-08-05T23:20:48.073Z,20.52
2022-08-05T23:22:48.435Z,20.49
2022-08-05T23:25:50.581Z,20.5
2022-08-05T23:27:57.947Z,20.51
2022-08-05T23:29:43.542Z,20.49
2022-08-05T23:31:43.827Z,20.42
2022-08-05T23:34:03.429Z,20.33
2022-08-05T23:35:43.513Z,20.31
2022-08-05T23:37:43.612Z,20.28
2022-08-05T23:40:55.845Z,20.31
2022-08-05T23:42:55.902Z,20.27
2022-08-05T23:44:55.787Z,20.17
2022-08-05T23:46:55.937Z,20.14
2022-08-05T23:48:59.521Z,20.13
2022-08-05T23:50:55.778Z,20.11
2022-08-05T23:52:55.796Z,20.08
2022-08-05T23:55:59.185Z,20.09
2022-08-05T23:57:59.170Z,19.92
